Time;durP1;ratioP1;P1;durP2;ratioP2;P2;SDS_P1;SDS_P2;PMS_P1;PMS_P2;Temp;Humidity;BMP_temperature;BMP_pressure;BME280_temperature;BME280_humidity;BME280_pressure;Samples;Min_cycle;Max_cycle;Signal;HPM_P1;HPM_P2
2021/09/18 00:00:22;;;;;;;;;;;;;;;15.44;86.58;96635.93;116750;1177;58705;-66
2021/09/18 00:03:05;;;;;;;;;;;;;;;15.30;87.72;96632.00;116691;1177;69794;-68
2021/09/18 00:05:35;;;;;;;;;;;;;;;15.36;86.76;96627.22;116692;1177;68733;-67
2021/09/18 00:08:05;;;;;;;;;;;;;;;15.38;86.73;96632.98;116702;1177;69191;-65
2021/09/18 00:10:35;;;;;;;;;;;;;;;15.34;87.89;96637.84;116787;1178;58710;-66
2021/09/18 00:13:04;;;;;;;;;;;;;;;15.26;88.16;96643.72;116705;1177;58810;-67
2021/09/18 00:15:34;;;;;;;;;;;;;;;15.26;88.04;96650.55;116786;1177;70331;-68
2021/09/18 00:18:03;;;;;;;;;;;;;;;15.28;87.31;96654.23;116759;1177;68605;-66
2021/09/18 00:20:32;;;;;;;;;;;;;;;15.31;86.36;96654.62;116617;1180;69226;-65
2021/09/18 00:23:03;;;;;;;;;;;;;;;15.34;86.09;96655.02;116717;1179;58763;-68
2021/09/18 00:25:32;;;;;;;;;;;;;;;15.35;86.26;96656.31;117011;1177;58864;-68
2021/09/18 00:28:01;;;;;;;;;;;;;;;15.37;86.07;96658.16;117007;1177;69832;-64
2021/09/18 00:30:31;;;;;;;;;;;;;;;15.40;85.57;96658.20;117067;1177;69024;-66
2021/09/18 00:33:02;;;;;;;;;;;;;;;15.43;85.52;96661.46;116686;1177;69231;-67
2021/09/18 00:35:32;;;;;;;;;;;;;;;15.43;86.01;96663.58;116791;1177;58723;-68
2021/09/18 00:38:01;;;;;;;;;;;;;;;15.41;85.96;96660.25;116693;1177;58663;-67
2021/09/18 00:40:31;;;;;;;;;;;;;;;15.41;85.53;96659.03;116642;1177;70642;-65
2021/09/18 00:43:00;;;;;;;;;;;;;;;15.44;85.23;96660.06;116774;1177;68453;-66
2021/09/18 00:45:31;;;;;;;;;;;;;;;15.47;85.17;96660.16;116776;1177;68433;-66
2021/09/18 00:48:01;;;;;;;;;;;;;;;15.49;85.17;96661.52;116783;1177;58718;-67
2021/09/18 00:50:31;;;;;;;;;;;;;;;15.51;85.19;96660.58;116755;1177;58701;-65
2021/09/18 00:53:00;;;;;;;;;;;;;;;15.51;85.02;96660.40;116728;1179;69751;-68
2021/09/18 00:55:31;;;;;;;;;;;;;;;15.52;84.89;96652.77;116764;1177;69312;-66
2021/09/18 00:58:00;;;;;;;;;;;;;;;15.54;85.05;96645.05;117159;1177;68492;-67
2021/09/18 01:00:33;;;;;;;;;;;;;;;15.54;84.91;96652.52;116645;1177;58762;-66
2021/09/18 01:03:02;;;;;;;;;;;;;;;15.55;84.90;96654.36;116676;1177;58742;-67
2021/09/18 01:05:32;;;;;;;;;;;;;;;15.55;84.80;96655.29;116748;1177;70669;-66
2021/09/18 01:08:03;;;;;;;;;;;;;;;15.53;84.61;96652.61;116728;1177;68302;-68
2021/09/18 01:10:33;;;;;;;;;;;;;;;15.52;84.43;96650.66;116748;1177;69167;-67
2021/09/18 01:13:12;;;;;;;;;;;;;;;15.50;84.27;96650.83;116716;1177;58785;-66
2021/09/18 01:15:42;;;;;;;;;;;;;;;15.48;84.01;96655.96;117006;1177;58765;-66
2021/09/18 01:18:12;;;;;;;;;;;;;;;15.49;83.99;96654.48;116715;1177;69982;-65
2021/09/18 01:20:42;;;;;;;;;;;;;;;15.48;84.01;96655.85;116889;1177;69118;-67
2021/09/18 01:23:15;;;;;;;;;;;;;;;15.48;83.94;96652.99;116970;1177;69046;-67
2021/09/18 01:25:46;;;;;;;;;;;;;;;15.47;83.93;96651.17;116911;1178;58805;-68
2021/09/18 01:28:16;;;;;;;;;;;;;;;15.46;83.98;96649.89;116764;1178;58740;-68
2021/09/18 01:30:46;;;;;;;;;;;;;;;15.43;84.46;96647.38;116726;1177;70530;-66
2021/09/18 01:33:15;;;;;;;;;;;;;;;15.40;84.16;96652.12;116683;1177;67430;-65
2021/09/18 01:35:45;;;;;;;;;;;;;;;15.34;84.50;96653.30;116731;1177;69474;-67
2021/09/18 01:38:14;;;;;;;;;;;;;;;15.29;84.13;96660.80;116619;1180;58728;-68
2021/09/18 01:40:47;;;;;;;;;;;;;;;15.25;83.87;96661.04;116632;1177;58693;-64
2021/09/18 01:43:16;;;;;;;;;;;;;;;15.19;83.75;96661.67;117022;1177;70612;-66
2021/09/18 01:45:46;;;;;;;;;;;;;;;15.15;83.73;96661.73;116723;1177;69157;-67
2021/09/18 01:48:17;;;;;;;;;;;;;;;15.12;83.88;96663.98;116669;1177;69105;-65
2021/09/18 01:50:52;;;;;;;;;;;;;;;15.07;83.88;96665.70;116798;1177;58701;-67
2021/09/18 01:53:22;;;;;;;;;;;;;;;15.05;83.82;96662.23;116742;1177;58800;-67
2021/09/18 01:55:52;;;;;;;;;;;;;;;14.99;83.71;96660.75;116717;1177;70410;-65
2021/09/18 01:58:22;;;;;;;;;;;;;;;14.96;83.77;96664.70;116646;1180;68452;-67
2021/09/18 02:00:53;;;;;;;;;;;;;;;14.95;83.63;96662.55;116726;1177;69212;-65
2021/09/18 02:03:23;;;;;;;;;;;;;;;14.92;83.62;96668.27;116979;1177;58758;-66
2021/09/18 02:05:53;;;;;;;;;;;;;;;14.93;83.78;96669.77;116802;1177;58701;-67
2021/09/18 02:08:23;;;;;;;;;;;;;;;14.90;83.63;96668.20;116746;1178;70585;-67
2021/09/18 02:10:54;;;;;;;;;;;;;;;14.86;83.50;96670.89;116737;1177;70330;-66
2021/09/18 02:13:25;;;;;;;;;;;;;;;14.83;83.43;96669.90;116693;1177;68895;-68
2021/09/18 02:15:54;;;;;;;;;;;;;;;14.82;83.31;96670.61;116563;1178;58693;-67
2021/09/18 02:18:24;;;;;;;;;;;;;;;14.82;83.26;96668.30;116698;1177;58737;-67
2021/09/18 02:20:54;;;;;;;;;;;;;;;14.81;83.39;96672.98;116787;1177;69782;-69
2021/09/18 02:23:24;;;;;;;;;;;;;;;14.83;83.33;96672.39;116836;1177;68456;-68
2021/09/18 02:25:54;;;;;;;;;;;;;;;14.79;83.14;96671.74;116663;1177;69443;-66
2021/09/18 02:28:26;;;;;;;;;;;;;;;14.76;83.17;96670.77;116755;1177;58757;-68
2021/09/18 02:30:56;;;;;;;;;;;;;;;14.75;83.06;96673.56;116781;1177;58680;-66
2021/09/18 02:33:26;;;;;;;;;;;;;;;14.74;82.95;96673.73;116895;1178;69850;-67
2021/09/18 02:35:56;;;;;;;;;;;;;;;14.72;82.69;96672.63;116710;1177;68666;-70
2021/09/18 02:38:26;;;;;;;;;;;;;;;14.67;82.76;96672.75;117046;1177;68499;-69
2021/09/18 02:40:56;;;;;;;;;;;;;;;14.63;82.86;96672.23;116749;1177;59807;-66
2021/09/18 02:43:26;;;;;;;;;;;;;;;14.62;82.85;96669.44;116686;1177;58749;-65
2021/09/18 02:45:55;;;;;;;;;;;;;;;14.62;82.91;96675.19;117091;1177;70620;-68
2021/09/18 02:48:25;;;;;;;;;;;;;;;14.59;82.89;96674.24;116799;1177;69171;-67
2021/09/18 02:50:57;;;;;;;;;;;;;;;14.59;82.76;96678.36;116718;1177;68430;-66
2021/09/18 02:53:27;;;;;;;;;;;;;;;14.59;82.82;96679.41;116732;1177;59303;-66
2021/09/18 02:55:59;;;;;;;;;;;;;;;14.59;82.84;96679.34;116809;1177;58735;-66
2021/09/18 02:58:31;;;;;;;;;;;;;;;14.60;83.04;96681.54;116775;1177;70652;-66
2021/09/18 03:01:01;;;;;;;;;;;;;;;14.58;82.89;96678.55;116755;1177;68283;-66
2021/09/18 03:03:31;;;;;;;;;;;;;;;14.57;82.85;96680.83;116715;1177;69056;-68
2021/09/18 03:06:01;;;;;;;;;;;;;;;14.56;83.02;96680.54;116740;1177;58736;-67
2021/09/18 03:08:31;;;;;;;;;;;;;;;14.55;83.07;96684.17;116661;1177;58700;-68
2021/09/18 03:11:01;;;;;;;;;;;;;;;14.53;83.05;96683.52;116729;1177;70602;-66
2021/09/18 03:13:31;;;;;;;;;;;;;;;14.52;83.01;96684.10;116747;1177;69195;-66
2021/09/18 03:16:01;;;;;;;;;;;;;;;14.50;82.87;96687.73;116754;1177;69210;-67
2021/09/18 03:18:30;;;;;;;;;;;;;;;14.51;82.83;96689.60;116741;1177;58787;-65
2021/09/18 03:21:00;;;;;;;;;;;;;;;14.50;82.91;96694.60;117104;1177;58765;-67
2021/09/18 03:23:32;;;;;;;;;;;;;;;14.50;82.93;96696.56;116745;1177;70841;-68
2021/09/18 03:26:02;;;;;;;;;;;;;;;14.47;82.97;96698.94;117072;1177;68474;-69
2021/09/18 03:28:32;;;;;;;;;;;;;;;14.46;82.99;96700.23;117030;1177;69239;-67
2021/09/18 03:31:02;;;;;;;;;;;;;;;14.42;82.80;96703.47;116809;1177;58738;-68
2021/09/18 03:33:31;;;;;;;;;;;;;;;14.37;82.76;96707.11;116704;1177;58701;-66
2021/09/18 03:36:01;;;;;;;;;;;;;;;14.37;82.79;96711.27;116876;1177;69612;-67
2021/09/18 03:38:31;;;;;;;;;;;;;;;14.35;83.09;96716.80;116707;1177;69193;-67
2021/09/18 03:41:00;;;;;;;;;;;;;;;14.33;82.77;96719.80;116840;1177;69065;-68
2021/09/18 03:43:30;;;;;;;;;;;;;;;14.27;82.74;96720.84;116732;1177;58739;-66
2021/09/18 03:45:59;;;;;;;;;;;;;;;14.25;82.96;96717.39;116783;1177;58765;-67
2021/09/18 03:48:29;;;;;;;;;;;;;;;14.22;82.70;96722.91;116917;1177;70585;-67
2021/09/18 03:50:58;;;;;;;;;;;;;;;14.21;82.94;96723.58;116905;1178;69491;-68
2021/09/18 03:53:27;;;;;;;;;;;;;;;14.20;82.94;96725.81;116908;1177;69301;-68
2021/09/18 03:55:57;;;;;;;;;;;;;;;14.19;82.82;96725.04;116974;1177;58713;-70
2021/09/18 03:58:27;;;;;;;;;;;;;;;14.17;82.87;96723.95;117050;1177;58702;-67
2021/09/18 04:00:56;;;;;;;;;;;;;;;14.18;82.82;96725.85;116969;1177;70515;-67
2021/09/18 04:03:26;;;;;;;;;;;;;;;14.17;82.77;96724.83;116971;1177;70209;-69
2021/09/18 04:05:56;;;;;;;;;;;;;;;14.14;82.55;96728.15;116755;1177;69183;-67
2021/09/18 04:08:26;;;;;;;;;;;;;;;14.10;82.65;96733.74;116895;1177;58751;-68
2021/09/18 04:10:55;;;;;;;;;;;;;;;14.06;82.51;96732.62;116878;1177;58706;-66
2021/09/18 04:13:24;;;;;;;;;;;;;;;14.02;82.53;96732.61;116916;1177;70965;-68
2021/09/18 04:15:54;;;;;;;;;;;;;;;14.01;82.62;96734.67;116824;1177;68223;-69
2021/09/18 04:18:23;;;;;;;;;;;;;;;13.99;83.40;96735.59;116755;1178;69033;-68
2021/09/18 04:20:53;;;;;;;;;;;;;;;13.90;83.60;96737.11;116841;1177;58748;-68
2021/09/18 04:23:22;;;;;;;;;;;;;;;13.89;83.46;96736.65;116905;1177;58761;-67
2021/09/18 04:25:52;;;;;;;;;;;;;;;13.84;83.84;96738.59;116803;1177;70033;-65
2021/09/18 04:28:21;;;;;;;;;;;;;;;13.77;84.47;96742.61;116868;1177;68825;-69
2021/09/18 04:30:50;;;;;;;;;;;;;;;13.67;84.46;96745.96;116886;1177;68771;-67
2021/09/18 04:33:20;;;;;;;;;;;;;;;13.69;83.96;96744.56;116825;1177;58674;-68
2021/09/18 04:35:49;;;;;;;;;;;;;;;13.63;84.09;96745.29;116885;1177;58746;-68
2021/09/18 04:38:18;;;;;;;;;;;;;;;13.63;84.16;96743.23;116781;1179;70673;-67
2021/09/18 04:40:48;;;;;;;;;;;;;;;13.65;84.23;96743.94;116885;1177;69051;-68
2021/09/18 04:43:17;;;;;;;;;;;;;;;13.69;83.61;96747.89;116923;1177;69279;-68
2021/09/18 04:45:47;;;;;;;;;;;;;;;13.68;83.43;96751.71;116930;1177;58746;-67
2021/09/18 04:48:17;;;;;;;;;;;;;;;13.70;83.21;96753.55;116926;1177;58729;-66
2021/09/18 04:50:46;;;;;;;;;;;;;;;13.75;83.13;96757.45;117042;1177;70406;-68
2021/09/18 04:53:16;;;;;;;;;;;;;;;13.71;83.07;96763.24;116918;1177;68520;-68
2021/09/18 04:55:45;;;;;;;;;;;;;;;13.71;83.34;96763.66;116883;1177;69255;-68
2021/09/18 04:58:14;;;;;;;;;;;;;;;13.72;82.96;96764.94;117040;1177;59251;-67
2021/09/18 05:00:43;;;;;;;;;;;;;;;13.67;82.98;96767.98;116820;1177;58692;-65
2021/09/18 05:03:13;;;;;;;;;;;;;;;13.69;83.08;96769.63;116927;1177;70389;-67
2021/09/18 05:05:43;;;;;;;;;;;;;;;13.72;82.81;96769.79;116829;1177;69116;-65
2021/09/18 05:08:13;;;;;;;;;;;;;;;13.70;82.98;96769.69;116885;1177;69285;-66
2021/09/18 05:10:43;;;;;;;;;;;;;;;13.72;82.74;96775.94;116903;1177;58688;-67
2021/09/18 05:13:13;;;;;;;;;;;;;;;13.76;82.67;96775.95;116874;1177;58675;-65
2021/09/18 05:15:42;;;;;;;;;;;;;;;13.75;82.72;96780.09;116888;1177;69066;-67
2021/09/18 05:18:11;;;;;;;;;;;;;;;13.71;82.93;96782.74;116932;1177;69256;-66
2021/09/18 05:20:40;;;;;;;;;;;;;;;13.69;83.05;96783.64;116918;1177;68803;-68
2021/09/18 05:23:10;;;;;;;;;;;;;;;13.74;82.71;96781.53;116951;1177;58734;-67
2021/09/18 05:25:40;;;;;;;;;;;;;;;13.78;82.61;96782.27;116918;1177;58722;-64
2021/09/18 05:28:09;;;;;;;;;;;;;;;13.77;82.86;96784.66;117038;1177;69563;-68
2021/09/18 05:30:38;;;;;;;;;;;;;;;13.82;82.47;96789.45;116999;1177;69043;-67
2021/09/18 05:33:07;;;;;;;;;;;;;;;13.85;82.41;96795.61;116858;1177;68739;-66
2021/09/18 05:35:36;;;;;;;;;;;;;;;13.77;82.54;96797.25;116746;1179;58782;-65
2021/09/18 05:38:05;;;;;;;;;;;;;;;13.80;82.52;96799.95;116905;1177;58686;-68
2021/09/18 05:40:35;;;;;;;;;;;;;;;13.84;82.50;96805.29;116880;1177;70512;-66
2021/09/18 05:43:04;;;;;;;;;;;;;;;13.87;82.63;96806.25;116903;1177;68558;-67
2021/09/18 05:45:33;;;;;;;;;;;;;;;13.90;82.39;96808.98;116918;1177;67995;-67
2021/09/18 05:48:03;;;;;;;;;;;;;;;13.89;82.30;96809.19;116938;1177;58763;-69
2021/09/18 05:50:33;;;;;;;;;;;;;;;13.90;82.15;96811.70;116978;1176;58732;-66
2021/09/18 05:53:02;;;;;;;;;;;;;;;13.83;82.34;96811.71;117053;1177;70694;-67
2021/09/18 05:55:31;;;;;;;;;;;;;;;13.85;82.26;96813.84;116950;1177;68751;-66
2021/09/18 05:58:01;;;;;;;;;;;;;;;13.85;82.41;96814.51;116827;1178;68496;-67
2021/09/18 06:00:30;;;;;;;;;;;;;;;13.85;82.49;96819.11;117029;1177;58715;-66
2021/09/18 06:02:59;;;;;;;;;;;;;;;13.86;82.58;96820.15;116985;1177;58693;-68
2021/09/18 06:05:29;;;;;;;;;;;;;;;13.90;82.26;96815.74;116974;1177;71759;-67
2021/09/18 06:07:58;;;;;;;;;;;;;;;13.94;82.12;96817.30;117041;1177;68403;-66
2021/09/18 06:10:27;;;;;;;;;;;;;;;13.99;82.21;96816.33;116980;1177;68093;-66
2021/09/18 06:12:56;;;;;;;;;;;;;;;14.05;81.77;96820.67;116846;1177;58677;-67
2021/09/18 06:15:25;;;;;;;;;;;;;;;14.09;81.42;96820.45;117007;1177;58747;-67
2021/09/18 06:17:54;;;;;;;;;;;;;;;14.08;81.38;96822.08;116995;1177;69655;-67
2021/09/18 06:20:23;;;;;;;;;;;;;;;14.09;81.45;96828.82;116965;1177;69176;-66
2021/09/18 06:22:52;;;;;;;;;;;;;;;14.10;81.13;96832.09;117011;1177;69042;-67
2021/09/18 06:25:22;;;;;;;;;;;;;;;14.10;81.14;96832.82;116815;1179;58698;-67
2021/09/18 06:27:51;;;;;;;;;;;;;;;14.11;80.88;96835.13;116883;1177;58706;-66
2021/09/18 06:30:21;;;;;;;;;;;;;;;14.07;80.97;96837.77;116814;1179;69799;-65
2021/09/18 06:32:50;;;;;;;;;;;;;;;14.10;80.95;96839.81;116943;1177;69258;-65
2021/09/18 06:35:19;;;;;;;;;;;;;;;14.12;80.94;96842.00;116921;1177;69088;-69
2021/09/18 06:37:48;;;;;;;;;;;;;;;14.13;80.71;96845.10;116855;1180;58701;-67
2021/09/18 06:40:19;;;;;;;;;;;;;;;14.13;80.77;96843.13;116891;1177;58730;-68
2021/09/18 06:42:48;;;;;;;;;;;;;;;14.14;80.67;96841.63;116886;1177;69834;-68
2021/09/18 06:45:17;;;;;;;;;;;;;;;14.18;80.55;96845.11;116925;1177;69210;-66
2021/09/18 06:47:47;;;;;;;;;;;;;;;14.19;80.38;96852.89;116832;1177;69088;-66
2021/09/18 06:50:16;;;;;;;;;;;;;;;14.17;80.09;96854.88;117003;1177;58713;-66
2021/09/18 06:52:45;;;;;;;;;;;;;;;14.17;79.87;96857.14;116948;1177;58662;-66
2021/09/18 06:55:14;;;;;;;;;;;;;;;14.15;79.71;96859.45;116932;1177;70668;-66
2021/09/18 06:57:44;;;;;;;;;;;;;;;14.12;79.78;96863.27;116942;1177;69076;-67
2021/09/18 07:00:14;;;;;;;;;;;;;;;14.14;79.99;96864.09;116910;1177;69386;-67
2021/09/18 07:02:43;;;;;;;;;;;;;;;14.12;79.86;96867.82;116906;1177;58745;-70
2021/09/18 07:05:13;;;;;;;;;;;;;;;14.12;80.03;96866.73;116987;1177;58772;-68
2021/09/18 07:07:42;;;;;;;;;;;;;;;14.17;80.13;96867.35;116882;1177;70399;-67
2021/09/18 07:10:12;;;;;;;;;;;;;;;14.20;80.03;96871.21;116898;1177;69286;-66
2021/09/18 07:12:41;;;;;;;;;;;;;;;14.18;79.41;96869.67;116927;1177;68097;-67
2021/09/18 07:15:10;;;;;;;;;;;;;;;14.19;79.28;96871.55;117058;1177;59173;-67
2021/09/18 07:17:39;;;;;;;;;;;;;;;14.11;79.41;96873.48;116953;1177;58750;-68
2021/09/18 07:20:09;;;;;;;;;;;;;;;14.12;79.66;96876.23;116932;1177;70691;-66
2021/09/18 07:22:38;;;;;;;;;;;;;;;14.15;79.59;96879.79;116921;1177;67793;-65
2021/09/18 07:25:09;;;;;;;;;;;;;;;14.16;79.68;96883.58;116900;1177;67941;-68
2021/09/18 07:27:38;;;;;;;;;;;;;;;14.16;79.66;96885.65;116942;1177;58719;-67
2021/09/18 07:30:08;;;;;;;;;;;;;;;14.17;79.92;96889.70;116878;1177;58698;-68
2021/09/18 07:32:37;;;;;;;;;;;;;;;14.21;79.48;96892.70;116823;1177;69071;-65
2021/09/18 07:35:06;;;;;;;;;;;;;;;14.16;79.29;96898.73;116770;1177;68719;-66
2021/09/18 07:37:36;;;;;;;;;;;;;;;14.08;79.45;96897.94;116805;1178;69234;-66
2021/09/18 07:40:07;;;;;;;;;;;;;;;14.10;79.44;96906.15;116705;1179;59136;-65
2021/09/18 07:42:37;;;;;;;;;;;;;;;14.10;79.52;96904.98;116721;1179;58720;-65
2021/09/18 07:45:08;;;;;;;;;;;;;;;14.08;79.45;96906.36;116924;1177;70687;-65
2021/09/18 07:47:37;;;;;;;;;;;;;;;14.06;79.61;96908.63;116815;1177;69242;-66
2021/09/18 07:50:08;;;;;;;;;;;;;;;14.09;79.35;96910.88;116885;1177;68366;-67
2021/09/18 07:52:37;;;;;;;;;;;;;;;14.14;79.28;96911.80;116909;1177;58727;-64
2021/09/18 07:55:08;;;;;;;;;;;;;;;14.20;79.42;96912.07;116979;1177;58704;-65
2021/09/18 07:57:57;;;;;;;;;;;;;;;14.32;79.20;96914.98;116883;1177;69853;-65
2021/09/18 08:00:26;;;;;;;;;;;;;;;14.44;79.00;96919.45;116822;1177;69206;-66
2021/09/18 08:02:56;;;;;;;;;;;;;;;14.51;78.61;96919.33;116964;1177;69286;-66
2021/09/18 08:05:25;;;;;;;;;;;;;;;14.61;78.59;96921.15;116904;1177;58668;-65
2021/09/18 08:08:00;;;;;;;;;;;;;;;14.72;78.39;96924.27;116937;1178;58714;-67
2021/09/18 08:10:30;;;;;;;;;;;;;;;14.82;78.22;96924.16;117014;1177;69600;-65
2021/09/18 08:13:00;;;;;;;;;;;;;;;14.90;78.02;96925.82;117009;1177;69084;-64
2021/09/18 08:15:29;;;;;;;;;;;;;;;14.97;77.74;96926.80;116918;1177;69359;-66
2021/09/18 08:17:58;;;;;;;;;;;;;;;15.00;77.61;96928.86;116897;1177;58733;-66
2021/09/18 08:20:27;;;;;;;;;;;;;;;15.06;77.47;96930.90;117014;1177;58704;-64
2021/09/18 08:22:56;;;;;;;;;;;;;;;15.11;76.90;96931.79;116861;1177;70374;-66
2021/09/18 08:25:26;;;;;;;;;;;;;;;15.13;76.95;96935.52;116950;1177;69043;-65
2021/09/18 08:27:56;;;;;;;;;;;;;;;15.19;76.41;96940.64;116848;1177;68299;-65
2021/09/18 08:30:26;;;;;;;;;;;;;;;15.22;76.33;96939.46;116904;1177;59540;-65
2021/09/18 08:32:55;;;;;;;;;;;;;;;15.29;76.41;96947.45;117010;1177;59493;-65
2021/09/18 08:35:24;;;;;;;;;;;;;;;15.35;76.15;96943.48;116842;1177;71365;-65
2021/09/18 08:37:53;;;;;;;;;;;;;;;15.41;75.72;96946.48;116882;1177;68468;-65
2021/09/18 08:40:24;;;;;;;;;;;;;;;15.47;75.92;96948.67;116837;1177;69542;-66
2021/09/18 08:42:54;;;;;;;;;;;;;;;15.55;75.53;96949.26;116917;1177;59504;-65
2021/09/18 08:45:24;;;;;;;;;;;;;;;15.64;75.08;96945.42;116954;1177;59557;-64
2021/09/18 08:47:58;;;;;;;;;;;;;;;15.71;75.23;96942.52;116891;1177;70868;-65
2021/09/18 08:50:27;;;;;;;;;;;;;;;15.85;74.97;96935.68;116934;1177;69072;-65
2021/09/18 08:52:56;;;;;;;;;;;;;;;15.99;73.80;96936.39;116915;1177;69164;-66
2021/09/18 08:55:29;;;;;;;;;;;;;;;16.11;73.49;96942.58;116781;1179;59542;-65
2021/09/18 08:57:57;;;;;;;;;;;;;;;16.20;73.11;96940.55;116721;1178;59542;-66
2021/09/18 09:00:30;;;;;;;;;;;;;;;16.31;72.95;96940.95;116831;1177;70398;-62
2021/09/18 09:03:04;;;;;;;;;;;;;;;16.51;72.65;96944.03;116899;1179;69087;-65
2021/09/18 09:05:36;;;;;;;;;;;;;;;16.69;72.24;96948.61;116781;1177;68447;-65
2021/09/18 09:08:10;;;;;;;;;;;;;;;16.89;71.16;96945.91;116910;1177;59507;-65
2021/09/18 09:10:42;;;;;;;;;;;;;;;17.13;69.85;96944.40;116994;1177;59488;-65
2021/09/18 09:13:12;;;;;;;;;;;;;;;17.35;69.25;96946.25;116980;1177;70553;-65
2021/09/18 09:15:44;;;;;;;;;;;;;;;17.67;69.80;96942.55;116830;1177;69337;-65
2021/09/18 09:18:16;;;;;;;;;;;;;;;18.06;68.12;96943.45;117042;1177;68431;-66
2021/09/18 09:20:46;;;;;;;;;;;;;;;18.25;65.17;96939.85;116931;1177;59520;-64
2021/09/18 09:23:20;;;;;;;;;;;;;;;18.64;65.60;96942.81;116935;1177;59533;-65
2021/09/18 09:25:50;;;;;;;;;;;;;;;18.96;64.50;96942.71;116848;1177;71287;-65
2021/09/18 09:28:22;;;;;;;;;;;;;;;19.08;62.24;96944.69;116875;1177;69124;-65
2021/09/18 09:30:51;;;;;;;;;;;;;;;19.04;61.84;96944.70;116968;1177;69227;-65
2021/09/18 09:33:20;;;;;;;;;;;;;;;19.03;61.82;96942.48;116894;1177;59544;-66
2021/09/18 09:35:49;;;;;;;;;;;;;;;19.07;61.70;96943.82;116958;1177;59542;-66
2021/09/18 09:38:18;;;;;;;;;;;;;;;18.97;61.86;96947.33;117078;1176;71426;-66
2021/09/18 09:40:48;;;;;;;;;;;;;;;18.95;61.99;96939.68;117000;1177;69403;-66
2021/09/18 09:43:18;;;;;;;;;;;;;;;19.18;61.58;96933.79;116853;1177;68418;-62
2021/09/18 09:45:47;;;;;;;;;;;;;;;19.55;60.68;96931.27;116856;1177;59925;-65
2021/09/18 09:48:20;;;;;;;;;;;;;;;19.62;59.69;96930.95;116764;1178;59445;-67
2021/09/18 09:51:00;;;;;;;;;;;;;;;19.83;58.39;96924.59;116950;1177;71559;-64
2021/09/18 09:53:30;;;;;;;;;;;;;;;20.19;58.73;96925.39;117056;1177;68337;-65
2021/09/18 09:56:06;;;;;;;;;;;;;;;20.38;57.86;96920.33;116982;1177;69361;-65
2021/09/18 09:58:54;;;;;;;;;;;;;;;20.41;56.67;96920.70;116977;1177;59550;-67
2021/09/18 10:01:23;;;;;;;;;;;;;;;20.61;55.85;96918.64;116798;1177;59571;-69
2021/09/18 10:03:55;;;;;;;;;;;;;;;21.06;55.61;96921.25;116920;1178;71259;-66
2021/09/18 10:06:24;;;;;;;;;;;;;;;21.46;54.21;96919.73;116887;1177;69259;-65
2021/09/18 10:08:54;;;;;;;;;;;;;;;21.53;51.88;96919.14;116901;1177;69131;-64
2021/09/18 10:11:30;;;;;;;;;;;;;;;21.42;51.84;96920.59;116999;1177;59535;-66
2021/09/18 10:14:00;;;;;;;;;;;;;;;21.81;51.94;96917.70;116994;1177;59488;-65
2021/09/18 10:16:32;;;;;;;;;;;;;;;22.56;49.54;96913.02;117008;1177;70726;-68
2021/09/18 10:19:05;;;;;;;;;;;;;;;23.03;48.30;96920.98;117012;1177;69204;-66
2021/09/18 10:24:27;;;;;;;;;;;;;;;24.16;45.81;96913.16;116803;1177;59561;-65
2021/09/18 10:27:25;;;;;;;;;;;;;;;24.96;44.52;96912.54;116966;1177;59520;-65
2021/09/18 10:29:54;;;;;;;;;;;;;;;25.92;43.40;96917.49;116892;1177;71474;-66
2021/09/18 10:32:24;;;;;;;;;;;;;;;26.53;41.51;96920.49;116988;1177;68416;-65
2021/09/18 10:35:14;;;;;;;;;;;;;;;26.95;40.64;96922.09;117004;1177;69354;-69
2021/09/18 10:37:43;;;;;;;;;;;;;;;27.13;39.04;96923.02;117031;1177;59607;-68
2021/09/18 10:40:13;;;;;;;;;;;;;;;27.32;37.99;96922.29;116926;1177;59489;-67
2021/09/18 10:42:44;;;;;;;;;;;;;;;27.42;38.39;96921.89;116913;1177;71332;-67
2021/09/18 10:45:14;;;;;;;;;;;;;;;27.99;37.84;96920.85;117040;1177;68274;-71
2021/09/18 10:47:43;;;;;;;;;;;;;;;28.80;36.43;96915.34;117005;1177;70033;-67
2021/09/18 10:50:17;;;;;;;;;;;;;;;29.39;34.55;96910.05;116915;1177;59509;-68
2021/09/18 10:53:01;;;;;;;;;;;;;;;28.94;33.35;96914.16;116936;1177;59498;-69
2021/09/18 10:55:48;;;;;;;;;;;;;;;28.00;34.92;96912.38;116953;1177;70245;-67
2021/09/18 10:58:17;;;;;;;;;;;;;;;27.08;36.51;96917.13;116926;1177;69176;-71
2021/09/18 11:00:51;;;;;;;;;;;;;;;26.62;37.57;96913.36;116998;1177;68451;-69
2021/09/18 11:03:32;;;;;;;;;;;;;;;26.11;38.01;96917.61;117008;1177;59532;-72
2021/09/18 11:06:02;;;;;;;;;;;;;;;25.34;38.62;96913.88;117010;1177;59538;-66
2021/09/18 11:08:35;;;;;;;;;;;;;;;24.97;39.80;96917.48;117041;1177;70423;-69
2021/09/18 11:11:05;;;;;;;;;;;;;;;25.79;39.61;96913.08;117084;1177;69197;-72
2021/09/18 11:13:37;;;;;;;;;;;;;;;26.57;38.72;96909.81;117058;1177;68628;-68
2021/09/18 11:16:26;;;;;;;;;;;;;;;26.94;37.78;96909.40;117074;1177;59542;-68
2021/09/18 11:18:59;;;;;;;;;;;;;;;26.95;35.87;96906.15;117093;1177;59548;-70
2021/09/18 11:21:32;;;;;;;;;;;;;;;26.70;35.40;96903.56;117031;1177;71379;-71
2021/09/18 11:24:20;;;;;;;;;;;;;;;27.13;35.05;96907.18;117025;1177;68476;-67
2021/09/18 11:26:52;;;;;;;;;;;;;;;28.13;34.21;96897.86;117068;1177;69241;-68
2021/09/18 11:29:28;;;;;;;;;;;;;;;29.10;33.03;96893.26;117024;1177;59464;-68
2021/09/18 11:31:59;;;;;;;;;;;;;;;29.80;32.39;96897.52;117001;1177;59535;-67
2021/09/18 11:34:30;;;;;;;;;;;;;;;30.58;30.36;96897.81;116893;1177;71151;-68
2021/09/18 11:37:00;;;;;;;;;;;;;;;30.85;29.33;96897.62;116971;1178;68527;-67
2021/09/18 11:39:55;;;;;;;;;;;;;;;30.84;28.92;96892.63;117007;1177;68493;-66
2021/09/18 11:42:24;;;;;;;;;;;;;;;29.62;29.13;96894.60;116395;1182;59490;-68
2021/09/18 11:45:04;;;;;;;;;;;;;;;28.51;30.69;96891.17;116275;1182;59568;-71
2021/09/18 11:47:35;;;;;;;;;;;;;;;27.57;31.94;96897.67;116289;1183;71507;-66
2021/09/18 11:50:17;;;;;;;;;;;;;;;28.04;32.08;96894.95;116217;1183;69237;-73
2021/09/18 11:52:46;;;;;;;;;;;;;;;29.13;30.39;96888.30;116333;1182;69351;-72
2021/09/18 11:55:26;;;;;;;;;;;;;;;30.26;29.25;96887.90;116248;1182;59568;-69
2021/09/18 11:58:03;;;;;;;;;;;;;;;31.49;27.02;96887.50;116330;1182;59586;-65
2021/09/18 12:00:32;;;;;;;;;;;;;;;31.73;26.68;96890.09;116272;1182;71401;-68
2021/09/18 12:03:02;;;;;;;;;;;;;;;31.96;26.46;96890.09;116146;1182;68485;-65
2021/09/18 12:05:31;;;;;;;;;;;;;;;32.47;25.70;96882.08;116191;1184;68343;-66
2021/09/18 12:08:03;;;;;;;;;;;;;;;32.38;23.70;96882.23;116242;1184;59580;-71
2021/09/18 12:10:31;;;;;;;;;;;;;;;31.96;25.58;96882.84;116302;1182;59552;-70
2021/09/18 12:13:01;;;;;;;;;;;;;;;30.81;25.87;96877.46;116108;1184;70584;-70
2021/09/18 12:15:32;;;;;;;;;;;;;;;29.44;27.56;96881.73;116118;1184;69248;-71
2021/09/18 12:18:03;;;;;;;;;;;;;;;27.05;30.04;96878.77;116190;1184;68598;-70
2021/09/18 12:20:32;;;;;;;;;;;;;;;26.38;31.82;96873.23;116690;1179;59506;-69
2021/09/18 12:23:01;;;;;;;;;;;;;;;25.74;33.31;96876.42;116970;1177;59607;-67
2021/09/18 12:25:31;;;;;;;;;;;;;;;25.32;34.55;96880.69;116847;1179;71291;-69
2021/09/18 12:28:01;;;;;;;;;;;;;;;25.04;35.38;96880.33;116969;1177;68446;-69
2021/09/18 12:30:41;;;;;;;;;;;;;;;24.89;36.44;96878.36;117004;1177;69108;-69
2021/09/18 12:33:11;;;;;;;;;;;;;;;25.18;36.05;96881.58;116868;1179;59525;-69
2021/09/18 12:35:47;;;;;;;;;;;;;;;25.27;35.42;96883.90;116965;1177;59535;-69
2021/09/18 12:38:16;;;;;;;;;;;;;;;25.05;35.32;96881.35;116825;1177;71404;-68
2021/09/18 12:40:47;;;;;;;;;;;;;;;25.02;35.70;96877.25;116858;1178;69390;-71
2021/09/18 12:43:22;;;;;;;;;;;;;;;24.85;36.36;96878.60;116996;1177;69361;-67
2021/09/18 12:46:13;;;;;;;;;;;;;;;24.66;36.18;96881.03;117021;1177;59538;-67
2021/09/18 12:48:42;;;;;;;;;;;;;;;24.32;35.91;96876.97;116939;1177;59533;-66
2021/09/18 12:51:17;;;;;;;;;;;;;;;24.00;35.75;96877.09;117021;1177;70546;-66
2021/09/18 12:53:47;;;;;;;;;;;;;;;23.61;36.66;96878.66;116947;1178;68464;-68
2021/09/18 12:56:18;;;;;;;;;;;;;;;23.30;37.43;96883.41;116981;1177;69322;-66